sensor_id;sensor_type;location;lat;lon;timestamp;temperature;humidity
20568;DHT22;10442;49.932;11.592;2023-09-19T00:00:45;19.00;79.40
20568;DHT22;10442;49.932;11.592;2023-09-19T00:03:15;19.00;79.50
20568;DHT22;10442;49.932;11.592;2023-09-19T00:05:43;19.00;79.50
20568;DHT22;10442;49.932;11.592;2023-09-19T00:08:12;19.00;79.40
20568;DHT22;10442;49.932;11.592;2023-09-19T00:10:41;19.00;79.30
20568;DHT22;10442;49.932;11.592;2023-09-19T00:13:10;19.00;79.20
20568;DHT22;10442;49.932;11.592;2023-09-19T00:15:44;19.00;79.30
20568;DHT22;10442;49.932;11.592;2023-09-19T00:18:19;19.00;79.50
20568;DHT22;10442;49.932;11.592;2023-09-19T00:20:48;19.00;79.40
20568;DHT22;10442;49.932;11.592;2023-09-19T00:23:17;19.00;79.30
20568;DHT22;10442;49.932;11.592;2023-09-19T00:25:44;19.00;79.30
20568;DHT22;10442;49.932;11.592;2023-09-19T00:28:12;19.00;79.40
20568;DHT22;10442;49.932;11.592;2023-09-19T00:30:42;19.00;79.30
20568;DHT22;10442;49.932;11.592;2023-09-19T00:33:11;19.10;79.30
20568;DHT22;10442;49.932;11.592;2023-09-19T00:35:54;19.10;79.20
20568;DHT22;10442;49.932;11.592;2023-09-19T00:38:22;19.10;79.30
20568;DHT22;10442;49.932;11.592;2023-09-19T00:40:54;19.10;79.30
20568;DHT22;10442;49.932;11.592;2023-09-19T00:43:25;19.00;79.20
20568;DHT22;10442;49.932;11.592;2023-09-19T00:45:56;19.00;79.40
20568;DHT22;10442;49.932;11.592;2023-09-19T00:48:25;19.00;79.60
20568;DHT22;10442;49.932;11.592;2023-09-19T00:50:55;18.90;79.70
20568;DHT22;10442;49.932;11.592;2023-09-19T00:53:24;18.90;79.90
20568;DHT22;10442;49.932;11.592;2023-09-19T00:55:52;18.90;80.00
20568;DHT22;10442;49.932;11.592;2023-09-19T00:58:20;18.90;80.00
20568;DHT22;10442;49.932;11.592;2023-09-19T01:00:48;18.90;80.00
20568;DHT22;10442;49.932;11.592;2023-09-19T01:03:17;18.90;79.90
20568;DHT22;10442;49.932;11.592;2023-09-19T01:05:46;18.90;79.90
20568;DHT22;10442;49.932;11.592;2023-09-19T01:08:13;18.90;79.80
20568;DHT22;10442;49.932;11.592;2023-09-19T01:10:51;18.90;79.60
20568;DHT22;10442;49.932;11.592;2023-09-19T01:13:33;18.90;79.60
20568;DHT22;10442;49.932;11.592;2023-09-19T01:19:15;19.00;79.50
20568;DHT22;10442;49.932;11.592;2023-09-19T01:22:00;19.00;79.50
20568;DHT22;10442;49.932;11.592;2023-09-19T01:25:07;18.90;79.20
20568;DHT22;10442;49.932;11.592;2023-09-19T01:30:47;18.90;79.10
20568;DHT22;10442;49.932;11.592;2023-09-19T01:33:17;18.90;79.00
20568;DHT22;10442;49.932;11.592;2023-09-19T01:35:45;18.80;78.90
20568;DHT22;10442;49.932;11.592;2023-09-19T01:38:12;18.80;78.80
20568;DHT22;10442;49.932;11.592;2023-09-19T01:40:43;18.80;78.80
20568;DHT22;10442;49.932;11.592;2023-09-19T01:43:23;18.80;78.80
20568;DHT22;10442;49.932;11.592;2023-09-19T01:46:09;18.80;78.80
20568;DHT22;10442;49.932;11.592;2023-09-19T01:51:44;18.80;78.60
20568;DHT22;10442;49.932;11.592;2023-09-19T01:54:20;18.80;78.60
20568;DHT22;10442;49.932;11.592;2023-09-19T01:57:15;18.80;78.60
20568;DHT22;10442;49.932;11.592;2023-09-19T01:59:52;18.80;78.40
20568;DHT22;10442;49.932;11.592;2023-09-19T02:02:22;18.80;78.40
20568;DHT22;10442;49.932;11.592;2023-09-19T02:04:50;18.80;78.30
20568;DHT22;10442;49.932;11.592;2023-09-19T02:07:17;18.80;78.40
20568;DHT22;10442;49.932;11.592;2023-09-19T02:09:45;18.80;78.30
20568;DHT22;10442;49.932;11.592;2023-09-19T02:12:15;18.80;78.30
20568;DHT22;10442;49.932;11.592;2023-09-19T02:14:42;18.80;78.40
20568;DHT22;10442;49.932;11.592;2023-09-19T02:17:10;18.80;78.40
20568;DHT22;10442;49.932;11.592;2023-09-19T02:19:39;18.80;78.40
20568;DHT22;10442;49.932;11.592;2023-09-19T02:22:08;18.80;78.50
20568;DHT22;10442;49.932;11.592;2023-09-19T02:24:38;18.90;78.50
20568;DHT22;10442;49.932;11.592;2023-09-19T02:27:05;18.90;78.50
20568;DHT22;10442;49.932;11.592;2023-09-19T02:29:34;18.90;78.50
20568;DHT22;10442;49.932;11.592;2023-09-19T02:32:03;18.90;78.40
20568;DHT22;10442;49.932;11.592;2023-09-19T02:34:31;19.00;78.50
20568;DHT22;10442;49.932;11.592;2023-09-19T02:36:59;19.00;78.50
20568;DHT22;10442;49.932;11.592;2023-09-19T02:39:27;19.00;78.40
20568;DHT22;10442;49.932;11.592;2023-09-19T02:41:56;19.00;78.40
20568;DHT22;10442;49.932;11.592;2023-09-19T02:44:23;19.10;78.40
20568;DHT22;10442;49.932;11.592;2023-09-19T02:46:51;19.10;78.40
20568;DHT22;10442;49.932;11.592;2023-09-19T02:49:18;19.20;79.00
20568;DHT22;10442;49.932;11.592;2023-09-19T02:51:46;19.20;78.00
20568;DHT22;10442;49.932;11.592;2023-09-19T02:54:14;19.30;78.00
20568;DHT22;10442;49.932;11.592;2023-09-19T02:56:43;19.20;77.90
20568;DHT22;10442;49.932;11.592;2023-09-19T02:59:11;19.30;77.80
20568;DHT22;10442;49.932;11.592;2023-09-19T03:01:38;19.40;77.90
20568;DHT22;10442;49.932;11.592;2023-09-19T03:04:06;19.40;77.70
20568;DHT22;10442;49.932;11.592;2023-09-19T03:06:35;19.40;77.70
20568;DHT22;10442;49.932;11.592;2023-09-19T03:09:02;19.50;77.70
20568;DHT22;10442;49.932;11.592;2023-09-19T03:11:33;19.50;77.60
20568;DHT22;10442;49.932;11.592;2023-09-19T03:14:01;19.50;77.40
20568;DHT22;10442;49.932;11.592;2023-09-19T03:16:28;19.50;77.60
20568;DHT22;10442;49.932;11.592;2023-09-19T03:18:58;19.60;77.50
20568;DHT22;10442;49.932;11.592;2023-09-19T03:21:28;19.60;77.50
20568;DHT22;10442;49.932;11.592;2023-09-19T03:23:57;19.60;77.40
20568;DHT22;10442;49.932;11.592;2023-09-19T03:26:25;19.60;77.30
20568;DHT22;10442;49.932;11.592;2023-09-19T03:28:54;19.60;77.20
20568;DHT22;10442;49.932;11.592;2023-09-19T03:31:21;19.60;77.30
20568;DHT22;10442;49.932;11.592;2023-09-19T03:33:49;19.60;77.30
20568;DHT22;10442;49.932;11.592;2023-09-19T03:36:17;19.60;77.20
20568;DHT22;10442;49.932;11.592;2023-09-19T03:38:45;19.70;77.40
20568;DHT22;10442;49.932;11.592;2023-09-19T03:41:12;19.70;77.30
20568;DHT22;10442;49.932;11.592;2023-09-19T03:43:42;19.70;77.30
20568;DHT22;10442;49.932;11.592;2023-09-19T03:46:10;19.70;77.10
20568;DHT22;10442;49.932;11.592;2023-09-19T03:48:41;19.70;77.10
20568;DHT22;10442;49.932;11.592;2023-09-19T03:51:09;19.70;77.00
20568;DHT22;10442;49.932;11.592;2023-09-19T03:53:38;19.70;77.00
20568;DHT22;10442;49.932;11.592;2023-09-19T03:56:06;19.70;77.00
20568;DHT22;10442;49.932;11.592;2023-09-19T03:58:33;19.70;77.00
20568;DHT22;10442;49.932;11.592;2023-09-19T04:01:06;19.70;77.00
20568;DHT22;10442;49.932;11.592;2023-09-19T04:03:34;19.70;76.90
20568;DHT22;10442;49.932;11.592;2023-09-19T04:06:15;19.70;76.80
20568;DHT22;10442;49.932;11.592;2023-09-19T04:08:43;19.70;76.70
20568;DHT22;10442;49.932;11.592;2023-09-19T04:11:12;19.70;76.60
20568;DHT22;10442;49.932;11.592;2023-09-19T04:13:39;19.60;76.40
20568;DHT22;10442;49.932;11.592;2023-09-19T04:16:07;19.60;76.40
20568;DHT22;10442;49.932;11.592;2023-09-19T04:18:35;19.60;76.20
20568;DHT22;10442;49.932;11.592;2023-09-19T04:21:05;19.60;76.20
20568;DHT22;10442;49.932;11.592;2023-09-19T04:23:34;19.60;76.20
20568;DHT22;10442;49.932;11.592;2023-09-19T04:26:01;19.60;76.10
20568;DHT22;10442;49.932;11.592;2023-09-19T04:28:32;19.50;76.10
20568;DHT22;10442;49.932;11.592;2023-09-19T04:31:02;19.50;76.20
20568;DHT22;10442;49.932;11.592;2023-09-19T04:33:29;19.50;76.30
20568;DHT22;10442;49.932;11.592;2023-09-19T04:35:57;19.40;76.40
20568;DHT22;10442;49.932;11.592;2023-09-19T04:38:34;19.40;77.20
20568;DHT22;10442;49.932;11.592;2023-09-19T04:41:01;19.40;76.60
20568;DHT22;10442;49.932;11.592;2023-09-19T04:43:29;19.40;76.60
20568;DHT22;10442;49.932;11.592;2023-09-19T04:45:57;19.40;76.80
20568;DHT22;10442;49.932;11.592;2023-09-19T04:48:28;19.40;76.90
20568;DHT22;10442;49.932;11.592;2023-09-19T04:50:56;19.30;76.80
20568;DHT22;10442;49.932;11.592;2023-09-19T04:53:23;19.30;76.80
20568;DHT22;10442;49.932;11.592;2023-09-19T04:55:52;19.30;76.80
20568;DHT22;10442;49.932;11.592;2023-09-19T04:58:23;19.30;77.00
20568;DHT22;10442;49.932;11.592;2023-09-19T05:00:51;19.30;77.20
20568;DHT22;10442;49.932;11.592;2023-09-19T05:03:19;19.20;77.30
20568;DHT22;10442;49.932;11.592;2023-09-19T05:05:47;19.20;77.40
20568;DHT22;10442;49.932;11.592;2023-09-19T05:08:15;19.20;77.40
20568;DHT22;10442;49.932;11.592;2023-09-19T05:10:42;19.20;77.40
20568;DHT22;10442;49.932;11.592;2023-09-19T05:13:10;19.20;77.40
20568;DHT22;10442;49.932;11.592;2023-09-19T05:15:39;19.20;77.50
20568;DHT22;10442;49.932;11.592;2023-09-19T05:18:07;19.20;77.50
20568;DHT22;10442;49.932;11.592;2023-09-19T05:20:35;19.20;77.60
20568;DHT22;10442;49.932;11.592;2023-09-19T05:23:06;19.20;77.70
20568;DHT22;10442;49.932;11.592;2023-09-19T05:25:40;19.20;77.70
20568;DHT22;10442;49.932;11.592;2023-09-19T05:28:10;19.30;77.80
20568;DHT22;10442;49.932;11.592;2023-09-19T05:30:39;19.30;77.90
20568;DHT22;10442;49.932;11.592;2023-09-19T05:33:07;19.30;77.70
20568;DHT22;10442;49.932;11.592;2023-09-19T05:35:36;19.30;77.60
20568;DHT22;10442;49.932;11.592;2023-09-19T05:38:07;19.30;77.50
20568;DHT22;10442;49.932;11.592;2023-09-19T05:40:36;19.40;77.50
20568;DHT22;10442;49.932;11.592;2023-09-19T05:43:06;19.40;77.50
20568;DHT22;10442;49.932;11.592;2023-09-19T05:45:34;19.40;77.40
20568;DHT22;10442;49.932;11.592;2023-09-19T05:48:12;19.40;77.20
20568;DHT22;10442;49.932;11.592;2023-09-19T05:50:41;19.50;77.10
20568;DHT22;10442;49.932;11.592;2023-09-19T05:53:09;19.50;76.90
20568;DHT22;10442;49.932;11.592;2023-09-19T05:55:40;19.50;76.80
20568;DHT22;10442;49.932;11.592;2023-09-19T05:58:08;19.50;76.60
20568;DHT22;10442;49.932;11.592;2023-09-19T06:00:37;19.50;76.60
20568;DHT22;10442;49.932;11.592;2023-09-19T06:03:07;19.50;76.50
20568;DHT22;10442;49.932;11.592;2023-09-19T06:05:35;19.50;76.40
20568;DHT22;10442;49.932;11.592;2023-09-19T06:08:03;19.50;76.40
20568;DHT22;10442;49.932;11.592;2023-09-19T06:10:35;19.50;76.50
20568;DHT22;10442;49.932;11.592;2023-09-19T06:13:03;19.50;76.60
20568;DHT22;10442;49.932;11.592;2023-09-19T06:15:37;19.60;76.90
20568;DHT22;10442;49.932;11.592;2023-09-19T06:18:11;19.70;76.50
20568;DHT22;10442;49.932;11.592;2023-09-19T06:20:41;19.70;76.20
20568;DHT22;10442;49.932;11.592;2023-09-19T06:23:13;19.80;76.10
20568;DHT22;10442;49.932;11.592;2023-09-19T06:25:40;19.80;75.70
20568;DHT22;10442;49.932;11.592;2023-09-19T06:28:08;19.90;75.70
20568;DHT22;10442;49.932;11.592;2023-09-19T06:30:39;19.90;75.40
20568;DHT22;10442;49.932;11.592;2023-09-19T06:33:10;19.90;75.30
20568;DHT22;10442;49.932;11.592;2023-09-19T06:35:42;19.90;75.30
20568;DHT22;10442;49.932;11.592;2023-09-19T06:38:14;19.90;75.20
20568;DHT22;10442;49.932;11.592;2023-09-19T06:40:42;19.90;75.20
20568;DHT22;10442;49.932;11.592;2023-09-19T06:43:11;19.90;75.90
20568;DHT22;10442;49.932;11.592;2023-09-19T06:45:39;19.90;75.10
20568;DHT22;10442;49.932;11.592;2023-09-19T06:48:06;19.90;75.10
20568;DHT22;10442;49.932;11.592;2023-09-19T06:50:34;19.90;75.10
20568;DHT22;10442;49.932;11.592;2023-09-19T06:53:03;19.90;75.30
20568;DHT22;10442;49.932;11.592;2023-09-19T06:55:31;20.00;76.70
20568;DHT22;10442;49.932;11.592;2023-09-19T06:58:00;20.30;77.10
20568;DHT22;10442;49.932;11.592;2023-09-19T07:00:28;20.70;77.50
20568;DHT22;10442;49.932;11.592;2023-09-19T07:03:04;21.20;77.10
20568;DHT22;10442;49.932;11.592;2023-09-19T07:05:36;21.80;74.90
20568;DHT22;10442;49.932;11.592;2023-09-19T07:08:08;22.40;72.30
20568;DHT22;10442;49.932;11.592;2023-09-19T07:10:39;22.90;70.50
20568;DHT22;10442;49.932;11.592;2023-09-19T07:13:08;23.30;68.90
20568;DHT22;10442;49.932;11.592;2023-09-19T07:15:39;23.50;67.00
20568;DHT22;10442;49.932;11.592;2023-09-19T07:18:09;23.70;66.70
20568;DHT22;10442;49.932;11.592;2023-09-19T07:20:38;23.70;64.80
20568;DHT22;10442;49.932;11.592;2023-09-19T07:23:06;24.00;65.60
20568;DHT22;10442;49.932;11.592;2023-09-19T07:25:35;24.10;65.10
20568;DHT22;10442;49.932;11.592;2023-09-19T07:28:03;24.50;63.60
20568;DHT22;10442;49.932;11.592;2023-09-19T07:30:32;24.80;62.90
20568;DHT22;10442;49.932;11.592;2023-09-19T07:33:03;25.10;61.20
20568;DHT22;10442;49.932;11.592;2023-09-19T07:35:32;25.30;58.90
20568;DHT22;10442;49.932;11.592;2023-09-19T07:38:00;25.30;59.70
20568;DHT22;10442;49.932;11.592;2023-09-19T07:40:30;25.40;59.40
20568;DHT22;10442;49.932;11.592;2023-09-19T07:42:58;25.40;59.10
20568;DHT22;10442;49.932;11.592;2023-09-19T07:45:29;25.40;58.60
20568;DHT22;10442;49.932;11.592;2023-09-19T07:47:57;25.40;58.70
20568;DHT22;10442;49.932;11.592;2023-09-19T07:50:25;25.60;59.60
20568;DHT22;10442;49.932;11.592;2023-09-19T07:52:54;26.00;59.80
20568;DHT22;10442;49.932;11.592;2023-09-19T07:55:23;26.40;58.60
20568;DHT22;10442;49.932;11.592;2023-09-19T07:57:52;26.90;57.50
20568;DHT22;10442;49.932;11.592;2023-09-19T08:00:21;27.30;56.20
20568;DHT22;10442;49.932;11.592;2023-09-19T08:02:48;27.60;53.90
20568;DHT22;10442;49.932;11.592;2023-09-19T08:05:27;27.70;51.90
20568;DHT22;10442;49.932;11.592;2023-09-19T08:07:55;27.50;50.70
20568;DHT22;10442;49.932;11.592;2023-09-19T08:10:24;27.30;50.10
20568;DHT22;10442;49.932;11.592;2023-09-19T08:12:55;26.90;49.80
20568;DHT22;10442;49.932;11.592;2023-09-19T08:15:23;26.50;50.70
20568;DHT22;10442;49.932;11.592;2023-09-19T08:17:51;26.10;52.20
20568;DHT22;10442;49.932;11.592;2023-09-19T08:20:19;25.90;52.80
20568;DHT22;10442;49.932;11.592;2023-09-19T08:22:50;25.70;52.70
20568;DHT22;10442;49.932;11.592;2023-09-19T08:25:23;25.60;53.60
20568;DHT22;10442;49.932;11.592;2023-09-19T08:27:52;25.40;53.40
20568;DHT22;10442;49.932;11.592;2023-09-19T08:30:21;25.40;53.60
20568;DHT22;10442;49.932;11.592;2023-09-19T08:32:57;25.40;53.60
20568;DHT22;10442;49.932;11.592;2023-09-19T08:35:28;25.30;53.80
20568;DHT22;10442;49.932;11.592;2023-09-19T08:37:56;25.20;53.70
20568;DHT22;10442;49.932;11.592;2023-09-19T08:40:24;25.10;53.50
20568;DHT22;10442;49.932;11.592;2023-09-19T08:42:54;25.00;53.80
20568;DHT22;10442;49.932;11.592;2023-09-19T08:45:23;24.90;53.50
20568;DHT22;10442;49.932;11.592;2023-09-19T08:50:29;24.60;54.60
20568;DHT22;10442;49.932;11.592;2023-09-19T08:53:01;24.60;54.60
20568;DHT22;10442;49.932;11.592;2023-09-19T08:55:29;24.70;54.60
20568;DHT22;10442;49.932;11.592;2023-09-19T08:58:04;24.90;55.10
20568;DHT22;10442;49.932;11.592;2023-09-19T09:00:35;25.10;53.70
20568;DHT22;10442;49.932;11.592;2023-09-19T09:03:04;25.20;53.70
20568;DHT22;10442;49.932;11.592;2023-09-19T09:05:36;25.30;52.90
20568;DHT22;10442;49.932;11.592;2023-09-19T09:08:06;25.40;52.90
20568;DHT22;10442;49.932;11.592;2023-09-19T09:10:34;25.40;52.80
20568;DHT22;10442;49.932;11.592;2023-09-19T09:13:01;25.40;53.10
20568;DHT22;10442;49.932;11.592;2023-09-19T09:15:31;25.40;53.30
20568;DHT22;10442;49.932;11.592;2023-09-19T09:18:03;25.30;52.90
20568;DHT22;10442;49.932;11.592;2023-09-19T09:20:32;25.30;53.40
20568;DHT22;10442;49.932;11.592;2023-09-19T09:22:59;25.20;53.00
20568;DHT22;10442;49.932;11.592;2023-09-19T09:25:57;25.20;53.20
20568;DHT22;10442;49.932;11.592;2023-09-19T09:28:31;25.10;53.70
20568;DHT22;10442;49.932;11.592;2023-09-19T09:30:59;25.10;53.40
20568;DHT22;10442;49.932;11.592;2023-09-19T09:33:30;25.00;52.50
20568;DHT22;10442;49.932;11.592;2023-09-19T09:35:59;24.80;51.70
20568;DHT22;10442;49.932;11.592;2023-09-19T09:38:43;24.70;51.70
20568;DHT22;10442;49.932;11.592;2023-09-19T09:41:12;24.60;51.50
20568;DHT22;10442;49.932;11.592;2023-09-19T09:43:43;24.50;51.60
20568;DHT22;10442;49.932;11.592;2023-09-19T09:46:17;24.40;51.90
20568;DHT22;10442;49.932;11.592;2023-09-19T09:54:38;24.30;52.30
20568;DHT22;10442;49.932;11.592;2023-09-19T09:57:25;24.20;53.30
20568;DHT22;10442;49.932;11.592;2023-09-19T09:59:54;24.20;53.40
20568;DHT22;10442;49.932;11.592;2023-09-19T10:07:49;24.10;53.50
20568;DHT22;10442;49.932;11.592;2023-09-19T10:10:33;24.10;54.00
20568;DHT22;10442;49.932;11.592;2023-09-19T10:13:22;24.20;53.70
20568;DHT22;10442;49.932;11.592;2023-09-19T10:15:55;24.20;52.70
20568;DHT22;10442;49.932;11.592;2023-09-19T10:18:26;24.20;52.50
20568;DHT22;10442;49.932;11.592;2023-09-19T10:20:56;24.30;52.60
20568;DHT22;10442;49.932;11.592;2023-09-19T10:23:25;24.30;52.30
20568;DHT22;10442;49.932;11.592;2023-09-19T10:25:57;24.30;52.10
20568;DHT22;10442;49.932;11.592;2023-09-19T10:28:28;24.40;51.70
20568;DHT22;10442;49.932;11.592;2023-09-19T10:30:57;24.40;51.30
20568;DHT22;10442;49.932;11.592;2023-09-19T10:33:25;24.40;51.40
20568;DHT22;10442;49.932;11.592;2023-09-19T10:35:54;24.40;51.50
20568;DHT22;10442;49.932;11.592;2023-09-19T10:38:26;24.50;52.00
20568;DHT22;10442;49.932;11.592;2023-09-19T10:40:56;24.60;51.50
20568;DHT22;10442;49.932;11.592;2023-09-19T10:43:32;24.60;51.20
20568;DHT22;10442;49.932;11.592;2023-09-19T10:46:08;24.60;50.50
20568;DHT22;10442;49.932;11.592;2023-09-19T10:48:40;24.60;50.30
20568;DHT22;10442;49.932;11.592;2023-09-19T10:51:21;24.70;50.80
20568;DHT22;10442;49.932;11.592;2023-09-19T10:54:05;24.70;50.60
20568;DHT22;10442;49.932;11.592;2023-09-19T10:56:38;24.80;50.30
20568;DHT22;10442;49.932;11.592;2023-09-19T10:59:10;24.80;50.40
20568;DHT22;10442;49.932;11.592;2023-09-19T11:07:05;24.90;49.50
20568;DHT22;10442;49.932;11.592;2023-09-19T11:14:59;24.80;49.50
20568;DHT22;10442;49.932;11.592;2023-09-19T11:17:35;24.80;49.20
20568;DHT22;10442;49.932;11.592;2023-09-19T11:30:38;24.50;51.20
20568;DHT22;10442;49.932;11.592;2023-09-19T11:36:28;24.60;51.10
20568;DHT22;10442;49.932;11.592;2023-09-19T11:39:03;24.60;51.00
20568;DHT22;10442;49.932;11.592;2023-09-19T11:41:37;24.60;50.30
20568;DHT22;10442;49.932;11.592;2023-09-19T11:46:33;24.60;50.20
20568;DHT22;10442;49.932;11.592;2023-09-19T11:49:06;24.70;50.40
20568;DHT22;10442;49.932;11.592;2023-09-19T11:51:43;24.60;50.60
20568;DHT22;10442;49.932;11.592;2023-09-19T11:54:12;24.70;49.60
20568;DHT22;10442;49.932;11.592;2023-09-19T11:56:46;24.70;48.90
20568;DHT22;10442;49.932;11.592;2023-09-19T11:59:38;24.80;49.50
20568;DHT22;10442;49.932;11.592;2023-09-19T12:02:07;24.90;48.50
20568;DHT22;10442;49.932;11.592;2023-09-19T12:04:43;24.90;47.50
20568;DHT22;10442;49.932;11.592;2023-09-19T12:07:14;24.90;47.90
20568;DHT22;10442;49.932;11.592;2023-09-19T12:09:46;24.90;47.40
20568;DHT22;10442;49.932;11.592;2023-09-19T12:12:26;25.00;48.00
20568;DHT22;10442;49.932;11.592;2023-09-19T12:15:03;25.00;47.60
20568;DHT22;10442;49.932;11.592;2023-09-19T12:17:36;25.00;47.30
20568;DHT22;10442;49.932;11.592;2023-09-19T12:20:05;25.10;47.30
20568;DHT22;10442;49.932;11.592;2023-09-19T12:22:44;25.10;47.80
20568;DHT22;10442;49.932;11.592;2023-09-19T12:25:13;25.20;48.00
20568;DHT22;10442;49.932;11.592;2023-09-19T12:27:45;25.20;47.40
20568;DHT22;10442;49.932;11.592;2023-09-19T12:30:31;25.30;47.30
20568;DHT22;10442;49.932;11.592;2023-09-19T12:33:03;25.30;47.50
20568;DHT22;10442;49.932;11.592;2023-09-19T12:35:32;25.40;46.90
20568;DHT22;10442;49.932;11.592;2023-09-19T12:38:03;25.40;46.50
20568;DHT22;10442;49.932;11.592;2023-09-19T12:40:32;25.50;46.20
20568;DHT22;10442;49.932;11.592;2023-09-19T12:43:02;25.60;46.30
20568;DHT22;10442;49.932;11.592;2023-09-19T12:45:30;25.60;47.10
20568;DHT22;10442;49.932;11.592;2023-09-19T12:51:08;25.80;46.30
20568;DHT22;10442;49.932;11.592;2023-09-19T12:53:41;25.70;46.40
20568;DHT22;10442;49.932;11.592;2023-09-19T12:56:15;25.60;45.60
20568;DHT22;10442;49.932;11.592;2023-09-19T12:58:57;25.50;45.60
20568;DHT22;10442;49.932;11.592;2023-09-19T13:01:37;25.30;45.50
20568;DHT22;10442;49.932;11.592;2023-09-19T13:04:17;25.20;45.90
20568;DHT22;10442;49.932;11.592;2023-09-19T13:06:53;25.10;46.30
20568;DHT22;10442;49.932;11.592;2023-09-19T13:09:22;25.00;45.90
20568;DHT22;10442;49.932;11.592;2023-09-19T13:11:55;24.90;46.10
20568;DHT22;10442;49.932;11.592;2023-09-19T13:14:25;24.70;46.30
20568;DHT22;10442;49.932;11.592;2023-09-19T13:17:06;24.60;46.50
20568;DHT22;10442;49.932;11.592;2023-09-19T13:19:51;24.60;46.70
20568;DHT22;10442;49.932;11.592;2023-09-19T13:22:41;24.50;47.00
20568;DHT22;10442;49.932;11.592;2023-09-19T13:25:13;24.40;46.90
20568;DHT22;10442;49.932;11.592;2023-09-19T13:27:43;24.40;47.20
20568;DHT22;10442;49.932;11.592;2023-09-19T13:30:12;24.30;47.10
20568;DHT22;10442;49.932;11.592;2023-09-19T13:32:40;24.20;47.60
20568;DHT22;10442;49.932;11.592;2023-09-19T13:35:11;24.20;47.80
20568;DHT22;10442;49.932;11.592;2023-09-19T13:37:41;24.20;48.00
20568;DHT22;10442;49.932;11.592;2023-09-19T13:40:10;24.10;47.60
20568;DHT22;10442;49.932;11.592;2023-09-19T13:42:39;24.20;47.80
20568;DHT22;10442;49.932;11.592;2023-09-19T13:45:07;24.10;47.30
20568;DHT22;10442;49.932;11.592;2023-09-19T13:47:39;24.10;47.40
20568;DHT22;10442;49.932;11.592;2023-09-19T13:50:07;24.10;47.20
20568;DHT22;10442;49.932;11.592;2023-09-19T13:52:35;24.10;46.60
20568;DHT22;10442;49.932;11.592;2023-09-19T13:55:04;24.10;46.20
20568;DHT22;10442;49.932;11.592;2023-09-19T13:57:34;24.00;46.90
20568;DHT22;10442;49.932;11.592;2023-09-19T14:00:02;24.10;46.80
20568;DHT22;10442;49.932;11.592;2023-09-19T14:02:39;24.10;46.80
20568;DHT22;10442;49.932;11.592;2023-09-19T14:05:07;24.10;46.90
20568;DHT22;10442;49.932;11.592;2023-09-19T14:07:35;24.10;46.50
20568;DHT22;10442;49.932;11.592;2023-09-19T14:10:04;24.10;46.10
20568;DHT22;10442;49.932;11.592;2023-09-19T14:12:35;24.10;45.90
20568;DHT22;10442;49.932;11.592;2023-09-19T14:15:08;24.10;45.80
20568;DHT22;10442;49.932;11.592;2023-09-19T14:17:35;24.10;46.20
20568;DHT22;10442;49.932;11.592;2023-09-19T14:20:04;24.10;46.20
20568;DHT22;10442;49.932;11.592;2023-09-19T14:22:34;24.00;45.60
20568;DHT22;10442;49.932;11.592;2023-09-19T14:25:03;24.00;45.90
20568;DHT22;10442;49.932;11.592;2023-09-19T14:27:31;23.90;46.00
20568;DHT22;10442;49.932;11.592;2023-09-19T14:29:59;23.90;46.30
20568;DHT22;10442;49.932;11.592;2023-09-19T14:32:26;23.80;45.90
20568;DHT22;10442;49.932;11.592;2023-09-19T14:34:54;23.80;45.90
20568;DHT22;10442;49.932;11.592;2023-09-19T14:37:21;23.80;46.20
20568;DHT22;10442;49.932;11.592;2023-09-19T14:39:49;23.80;45.90
20568;DHT22;10442;49.932;11.592;2023-09-19T14:42:16;23.70;46.40
20568;DHT22;10442;49.932;11.592;2023-09-19T14:44:45;23.70;46.30
20568;DHT22;10442;49.932;11.592;2023-09-19T14:47:14;23.70;46.30
20568;DHT22;10442;49.932;11.592;2023-09-19T14:49:44;23.70;46.20
20568;DHT22;10442;49.932;11.592;2023-09-19T14:52:12;23.70;46.60
20568;DHT22;10442;49.932;11.592;2023-09-19T14:54:43;23.60;46.50
20568;DHT22;10442;49.932;11.592;2023-09-19T14:57:10;23.60;46.70
20568;DHT22;10442;49.932;11.592;2023-09-19T14:59:38;23.60;46.70
20568;DHT22;10442;49.932;11.592;2023-09-19T15:02:06;23.60;46.90
20568;DHT22;10442;49.932;11.592;2023-09-19T15:04:35;23.60;47.30
20568;DHT22;10442;49.932;11.592;2023-09-19T15:07:03;23.50;46.90
20568;DHT22;10442;49.932;11.592;2023-09-19T15:09:31;23.50;46.50
20568;DHT22;10442;49.932;11.592;2023-09-19T15:12:00;23.50;46.80
20568;DHT22;10442;49.932;11.592;2023-09-19T15:14:28;23.50;46.80
20568;DHT22;10442;49.932;11.592;2023-09-19T15:16:57;23.50;47.10
20568;DHT22;10442;49.932;11.592;2023-09-19T15:19:24;23.50;47.00
20568;DHT22;10442;49.932;11.592;2023-09-19T15:21:53;23.50;47.10
20568;DHT22;10442;49.932;11.592;2023-09-19T15:24:20;23.60;47.10
20568;DHT22;10442;49.932;11.592;2023-09-19T15:26:47;23.60;47.40
20568;DHT22;10442;49.932;11.592;2023-09-19T15:29:16;23.60;47.60
20568;DHT22;10442;49.932;11.592;2023-09-19T15:31:43;23.60;47.10
20568;DHT22;10442;49.932;11.592;2023-09-19T15:34:11;23.60;47.20
20568;DHT22;10442;49.932;11.592;2023-09-19T15:36:41;23.60;47.10
20568;DHT22;10442;49.932;11.592;2023-09-19T15:39:09;23.60;47.00
20568;DHT22;10442;49.932;11.592;2023-09-19T15:41:45;23.60;47.10
20568;DHT22;10442;49.932;11.592;2023-09-19T15:44:17;23.60;47.30
20568;DHT22;10442;49.932;11.592;2023-09-19T15:46:45;23.60;47.30
20568;DHT22;10442;49.932;11.592;2023-09-19T15:49:13;23.60;47.50
20568;DHT22;10442;49.932;11.592;2023-09-19T15:51:40;23.60;47.10
20568;DHT22;10442;49.932;11.592;2023-09-19T15:54:10;23.60;47.20
20568;DHT22;10442;49.932;11.592;2023-09-19T15:56:38;23.50;47.30
20568;DHT22;10442;49.932;11.592;2023-09-19T15:59:08;23.50;47.10
20568;DHT22;10442;49.932;11.592;2023-09-19T16:01:38;23.50;47.50
20568;DHT22;10442;49.932;11.592;2023-09-19T16:04:06;23.40;47.40
20568;DHT22;10442;49.932;11.592;2023-09-19T16:06:36;23.40;47.50
20568;DHT22;10442;49.932;11.592;2023-09-19T16:09:05;23.40;47.60
20568;DHT22;10442;49.932;11.592;2023-09-19T16:11:34;23.40;47.50
20568;DHT22;10442;49.932;11.592;2023-09-19T16:14:03;23.40;47.50
20568;DHT22;10442;49.932;11.592;2023-09-19T16:16:32;23.40;47.70
20568;DHT22;10442;49.932;11.592;2023-09-19T16:19:02;23.40;47.60
20568;DHT22;10442;49.932;11.592;2023-09-19T16:21:33;23.30;47.50
20568;DHT22;10442;49.932;11.592;2023-09-19T16:24:03;23.30;47.60
20568;DHT22;10442;49.932;11.592;2023-09-19T16:26:34;23.30;47.60
20568;DHT22;10442;49.932;11.592;2023-09-19T16:29:01;23.30;47.70